Time;durP1;ratioP1;P1;durP2;ratioP2;P2;SDS_P1;SDS_P2;PMS_P1;PMS_P2;Temp;Humidity;BMP_temperature;BMP_pressure;BME280_temperature;BME280_humidity;BME280_pressure;Samples;Min_cycle;Max_cycle;Signal;HPM_P1;HPM_P2
2022/06/08 00:00:44;;;;;;;7.57;4.43;;;23.40;49.00;;;;;;5073570;28;20398;-68
2022/06/08 00:03:28;;;;;;;5.70;4.22;;;23.40;49.00;;;;;;5055473;28;20041;-68
2022/06/08 00:05:54;;;;;;;5.78;4.20;;;23.30;49.10;;;;;;5073697;28;20044;-68
2022/06/08 00:08:20;;;;;;;5.85;4.30;;;23.30;49.00;;;;;;5073577;28;20043;-68
2022/06/08 00:10:45;;;;;;;5.82;4.30;;;23.20;48.90;;;;;;5054935;28;20032;-67
2022/06/08 00:13:12;;;;;;;5.35;4.20;;;23.20;48.90;;;;;;5072979;28;20363;-67
2022/06/08 00:15:39;;;;;;;5.53;4.30;;;23.20;48.90;;;;;;5073327;28;20029;-68
2022/06/08 00:18:06;;;;;;;4.90;4.07;;;23.20;48.90;;;;;;5073032;28;20390;-67
2022/06/08 00:20:32;;;;;;;5.32;3.90;;;23.20;48.80;;;;;;5055285;28;20028;-68
2022/06/08 00:22:58;;;;;;;5.20;4.15;;;23.10;48.80;;;;;;5073018;28;20029;-68
2022/06/08 00:25:24;;;;;;;5.25;3.90;;;23.20;48.90;;;;;;5055690;28;20467;-68
2022/06/08 00:27:50;;;;;;;5.03;3.75;;;23.20;48.90;;;;;;5073689;28;20028;-68
2022/06/08 00:30:15;;;;;;;5.68;3.53;;;23.10;48.90;;;;;;5076974;28;20392;-69
2022/06/08 00:32:41;;;;;;;5.35;3.75;;;23.10;49.10;;;;;;5076746;28;20036;-68
2022/06/08 00:35:08;;;;;;;4.57;3.80;;;23.00;49.10;;;;;;5076623;28;20020;-68
2022/06/08 00:37:34;;;;;;;4.93;3.67;;;23.00;49.30;;;;;;5076674;28;20379;-70
2022/06/08 00:39:59;;;;;;;6.07;4.13;;;23.00;49.40;;;;;;5077155;28;20110;-68
2022/06/08 00:42:25;;;;;;;4.68;3.95;;;22.90;49.50;;;;;;5076729;28;20056;-68
2022/06/08 00:44:58;;;;;;;4.65;3.53;;;22.90;49.50;;;;;;5076356;28;20031;-67
2022/06/08 00:47:36;;;;;;;5.40;3.90;;;22.80;49.70;;;;;;5076290;28;20083;-68
2022/06/08 00:50:12;;;;;;;5.32;3.95;;;22.80;49.80;;;;;;5058604;28;20024;-67
2022/06/08 00:52:38;;;;;;;5.53;3.70;;;22.80;49.70;;;;;;5058789;28;20071;-67
2022/06/08 00:55:08;;;;;;;5.07;3.63;;;22.80;49.70;;;;;;5058461;28;20416;-68
2022/06/08 00:57:41;;;;;;;5.22;4.13;;;22.80;49.80;;;;;;5076190;28;20021;-68
2022/06/08 01:00:17;;;;;;;5.45;4.00;;;22.70;49.90;;;;;;5076262;28;20028;-68
2022/06/08 01:02:42;;;;;;;5.28;3.92;;;22.70;50.00;;;;;;5057968;28;20029;-68
2022/06/08 01:05:15;;;;;;;5.22;4.00;;;22.70;50.00;;;;;;5076315;28;20028;-69
2022/06/08 01:07:42;;;;;;;4.80;3.85;;;22.60;50.10;;;;;;5076316;28;20352;-68
2022/06/08 01:10:18;;;;;;;5.03;3.72;;;22.60;50.00;;;;;;5076202;28;20181;-68
2022/06/08 01:12:45;;;;;;;5.95;3.67;;;22.60;50.20;;;;;;5075870;28;20424;-68
2022/06/08 01:15:16;;;;;;;5.85;3.70;;;22.60;50.00;;;;;;5076083;28;20021;-65
2022/06/08 01:17:42;;;;;;;7.35;3.53;;;22.60;50.10;;;;;;5058087;28;20024;-66
2022/06/08 01:20:10;;;;;;;4.70;3.70;;;22.60;50.10;;;;;;5075927;28;20035;-67
2022/06/08 01:22:36;;;;;;;5.10;3.75;;;22.60;50.30;;;;;;5075936;28;20024;-65
2022/06/08 01:25:03;;;;;;;5.68;3.80;;;22.50;50.40;;;;;;5075999;28;20035;-67
2022/06/08 01:28:00;;;;;;;4.40;3.85;;;22.60;50.50;;;;;;5074898;28;20067;-67
2022/06/08 01:30:29;;;;;;;4.75;3.95;;;22.50;50.90;;;;;;5075785;28;20033;-67
2022/06/08 01:32:57;;;;;;;4.50;3.47;;;22.50;50.50;;;;;;5075614;28;20036;-66
2022/06/08 01:35:36;;;;;;;6.30;4.10;;;22.50;50.60;;;;;;5076015;28;20042;-67
2022/06/08 01:38:16;;;;;;;5.88;4.10;;;22.50;50.70;;;;;;5075556;28;20039;-67
2022/06/08 01:41:07;;;;;;;6.38;3.88;;;22.50;50.80;;;;;;5075147;28;20052;-66
2022/06/08 01:43:53;;;;;;;5.57;3.67;;;22.50;50.70;;;;;;5037297;28;20051;-67
2022/06/08 01:46:25;;;;;;;6.05;3.97;;;22.50;50.70;;;;;;5060831;28;20390;-68
2022/06/08 01:49:11;;;;;;;5.93;4.07;;;22.50;50.70;;;;;;5075339;28;20029;-69
2022/06/08 01:51:38;;;;;;;7.68;3.85;;;22.50;50.70;;;;;;5075345;28;20102;-67
2022/06/08 01:54:31;;;;;;;5.85;4.22;;;22.50;50.80;;;;;;5075369;28;20371;-66
2022/06/08 01:57:27;;;;;;;5.13;4.18;;;22.50;51.30;;;;;;5075347;28;20032;-67
2022/06/08 02:00:09;;;;;;;5.30;4.00;;;22.50;51.20;;;;;;5075273;28;20033;-67
2022/06/08 02:03:00;;;;;;;5.28;4.20;;;22.50;51.00;;;;;;5075293;28;20048;-68
2022/06/08 02:05:31;;;;;;;5.30;4.05;;;22.50;51.20;;;;;;5075130;28;20074;-67
2022/06/08 02:08:17;;;;;;;4.82;4.07;;;22.50;50.90;;;;;;5074960;28;20032;-68
2022/06/08 02:10:58;;;;;;;5.30;3.80;;;22.50;51.20;;;;;;5074892;28;20039;-68
2022/06/08 02:13:33;;;;;;;5.32;4.10;;;22.50;51.10;;;;;;5074778;28;20029;-67
2022/06/08 02:16:05;;;;;;;6.82;3.75;;;22.50;51.00;;;;;;5074538;28;20119;-67
2022/06/08 02:18:43;;;;;;;6.25;4.00;;;22.50;50.90;;;;;;5057017;28;20029;-67
2022/06/08 02:21:20;;;;;;;5.20;3.83;;;22.60;50.90;;;;;;5074717;28;20025;-68
2022/06/08 02:23:52;;;;;;;5.47;4.43;;;22.50;51.30;;;;;;5074483;28;20025;-67
2022/06/08 02:26:26;;;;;;;6.90;4.85;;;22.50;51.10;;;;;;5074998;28;20123;-67
2022/06/08 02:29:11;;;;;;;6.60;3.88;;;22.50;51.10;;;;;;5052723;28;20082;-67
2022/06/08 02:31:39;;;;;;;;;;;22.50;52.20;;;;;;5037261;28;20498;-67
2022/06/08 02:34:29;;;;;;;7.30;3.92;;;22.40;52.20;;;;;;5054411;28;19911;-67
2022/06/08 02:37:09;;;;;;;5.47;4.32;;;22.40;51.30;;;;;;5036035;28;20025;-69
2022/06/08 02:39:44;;;;;;;6.70;4.60;;;22.40;52.50;;;;;;5054311;28;20041;-68
2022/06/08 02:42:32;;;;;;;6.45;4.93;;;22.30;52.10;;;;;;5036373;28;20036;-67
2022/06/08 02:45:14;;;;;;;8.43;4.18;;;22.30;52.70;;;;;;5036504;28;20029;-68
2022/06/08 02:47:42;;;;;;;5.22;4.60;;;22.30;52.40;;;;;;5054367;28;20453;-67
2022/06/08 02:50:20;;;;;;;6.43;4.68;;;22.20;51.90;;;;;;5054292;28;20025;-67
2022/06/08 02:52:48;;;;;;;4.78;4.15;;;22.30;52.10;;;;;;5053056;28;20040;-67
2022/06/08 02:55:46;;;;;;;5.55;4.65;;;22.30;51.70;;;;;;5054222;28;20041;-67
2022/06/08 02:58:19;;;;;;;5.35;4.60;;;22.30;52.10;;;;;;5052886;28;20122;-67
2022/06/08 03:00:57;;;;;;;6.13;4.90;;;22.30;52.10;;;;;;5054177;28;20103;-67
2022/06/08 03:03:35;;;;;;;6.45;5.18;;;22.30;51.90;;;;;;5053915;28;20032;-67
2022/06/08 03:06:10;;;;;;;5.72;5.00;;;22.30;51.80;;;;;;5054381;28;20044;-67
2022/06/08 03:08:42;;;;;;;5.82;4.82;;;22.30;51.90;;;;;;5053976;28;20112;-67
2022/06/08 03:11:10;;;;;;;6.63;4.97;;;22.30;51.90;;;;;;5053830;28;20025;-66
2022/06/08 03:13:52;;;;;;;5.78;4.75;;;22.30;52.10;;;;;;5035827;28;20029;-67
2022/06/08 03:16:56;;;;;;;5.22;4.38;;;22.30;52.80;;;;;;5054178;28;20033;-66
2022/06/08 03:19:23;;;;;;;6.93;4.80;;;22.30;53.40;;;;;;5012874;28;20072;-67
2022/06/08 03:21:49;;;;;;;5.57;4.72;;;22.30;52.30;;;;;;5053692;28;20029;-68
2022/06/08 03:24:17;;;;;;;5.68;4.93;;;22.40;52.40;;;;;;5053547;28;20021;-67
2022/06/08 03:26:47;;;;;;;6.00;4.93;;;22.40;52.50;;;;;;5053450;28;20029;-66
2022/06/08 03:29:12;;;;;;;5.38;4.78;;;22.50;52.60;;;;;;5054088;28;20029;-68
2022/06/08 03:31:38;;;;;;;6.28;4.88;;;22.40;52.70;;;;;;5070936;28;20090;-67
2022/06/08 03:34:04;;;;;;;5.57;4.57;;;22.50;52.80;;;;;;5073517;28;20029;-67
2022/06/08 03:36:30;;;;;;;5.25;4.30;;;22.50;53.00;;;;;;5073216;28;20043;-67
2022/06/08 03:38:55;;;;;;;5.60;4.50;;;22.60;53.20;;;;;;5072604;28;20055;-68
2022/06/08 03:41:21;;;;;;;6.90;4.10;;;22.60;53.50;;;;;;5073218;28;20103;-67
2022/06/08 03:43:47;;;;;;;6.75;5.05;;;22.70;53.80;;;;;;5073728;28;20352;-68
2022/06/08 03:46:13;;;;;;;5.88;4.10;;;22.70;54.10;;;;;;5073536;28;20036;-68
2022/06/08 03:48:40;;;;;;;4.47;3.92;;;22.80;54.40;;;;;;5073680;28;20052;-67
2022/06/08 03:51:06;;;;;;;5.47;4.03;;;22.80;54.60;;;;;;5072948;28;20379;-68
2022/06/08 03:53:43;;;;;;;4.50;3.67;;;22.90;54.70;;;;;;5073498;28;20031;-67
2022/06/08 03:56:10;;;;;;;5.10;3.92;;;22.90;55.00;;;;;;5073517;28;20036;-66
2022/06/08 03:58:36;;;;;;;4.38;3.53;;;23.00;55.00;;;;;;5073470;28;20455;-67
2022/06/08 04:01:03;;;;;;;5.10;3.53;;;23.00;55.00;;;;;;5073644;28;20447;-67
2022/06/08 04:03:30;;;;;;;4.97;3.92;;;23.10;55.00;;;;;;5074366;28;20028;-68
2022/06/08 04:05:58;;;;;;;3.90;3.35;;;23.20;55.10;;;;;;5076988;28;20117;-67
2022/06/08 04:09:04;;;;;;;4.55;3.22;;;23.20;55.10;;;;;;5077304;28;20021;-67
2022/06/08 04:11:30;;;;;;;3.83;3.42;;;23.30;56.00;;;;;;5075091;28;20094;-68
2022/06/08 04:13:55;;;;;;;3.80;3.20;;;23.30;55.20;;;;;;5070927;28;20024;-67
2022/06/08 04:16:22;;;;;;;4.40;3.20;;;23.40;55.20;;;;;;5076581;28;20031;-67
2022/06/08 04:18:48;;;;;;;3.47;3.15;;;23.40;55.10;;;;;;5077092;28;20028;-68
2022/06/08 04:21:15;;;;;;;3.22;2.90;;;23.50;55.00;;;;;;5071287;28;20021;-70
2022/06/08 04:23:44;;;;;;;5.15;3.20;;;23.50;54.90;;;;;;5074557;28;20031;-67
2022/06/08 04:26:28;;;;;;;5.97;3.72;;;23.60;55.00;;;;;;5076688;28;20040;-69
2022/06/08 04:28:54;;;;;;;3.70;3.20;;;23.70;55.80;;;;;;5057083;28;20036;-70
2022/06/08 04:31:20;;;;;;;4.45;3.40;;;23.70;55.10;;;;;;5076568;28;20043;-65
2022/06/08 04:33:46;;;;;;;5.63;3.65;;;23.70;55.10;;;;;;5075216;28;20032;-68
2022/06/08 04:36:12;;;;;;;5.53;3.75;;;23.70;55.10;;;;;;5076629;28;20386;-67
2022/06/08 04:38:39;;;;;;;6.15;4.05;;;23.80;55.30;;;;;;5071431;28;20045;-67
2022/06/08 04:41:05;;;;;;;4.78;3.90;;;23.80;55.20;;;;;;5076541;28;20083;-68
2022/06/08 04:43:31;;;;;;;4.63;3.42;;;23.80;55.10;;;;;;5057741;28;20075;-67
2022/06/08 04:45:57;;;;;;;6.00;4.00;;;23.80;55.10;;;;;;5058393;28;20052;-67
2022/06/08 04:48:23;;;;;;;4.50;3.60;;;23.80;55.10;;;;;;5075782;28;20503;-67
2022/06/08 04:50:49;;;;;;;6.25;3.92;;;23.90;55.00;;;;;;5076338;28;20048;-68
2022/06/08 04:53:15;;;;;;;5.25;3.80;;;23.90;55.10;;;;;;5076011;28;20501;-68
2022/06/08 04:55:41;;;;;;;4.50;3.60;;;24.00;55.20;;;;;;5076144;28;20032;-68
2022/06/08 04:58:06;;;;;;;4.55;3.63;;;24.00;55.10;;;;;;5075732;28;20029;-69
2022/06/08 05:00:32;;;;;;;5.10;3.60;;;24.00;55.00;;;;;;5071851;28;20025;-69
2022/06/08 05:02:59;;;;;;;5.30;3.50;;;24.10;55.10;;;;;;5070440;28;20029;-69
2022/06/08 05:05:27;;;;;;;4.18;3.50;;;24.10;55.10;;;;;;5074830;28;20028;-69
2022/06/08 05:07:54;;;;;;;4.55;3.60;;;24.20;55.10;;;;;;5072782;28;20028;-71
2022/06/08 05:10:21;;;;;;;3.97;3.35;;;24.20;55.00;;;;;;5051333;28;20115;-70
2022/06/08 05:12:47;;;;;;;3.83;3.30;;;24.20;54.90;;;;;;5055217;28;20028;-70
2022/06/08 05:15:16;;;;;;;5.25;3.30;;;24.30;55.00;;;;;;5067175;28;20033;-69
2022/06/08 05:17:42;;;;;;;4.75;3.05;;;24.30;54.90;;;;;;5074581;28;20497;-70
2022/06/08 05:20:09;;;;;;;3.35;2.92;;;24.40;54.90;;;;;;5069919;28;20033;-71
2022/06/08 05:22:37;;;;;;;3.90;3.03;;;24.40;54.90;;;;;;5065877;28;20021;-70
2022/06/08 05:25:04;;;;;;;6.00;5.10;;;24.40;54.80;;;;;;5053857;28;20089;-70
2022/06/08 05:27:30;;;;;;;4.15;3.58;;;24.40;54.80;;;;;;5053019;28;20048;-72
2022/06/08 05:29:56;;;;;;;4.13;3.13;;;24.40;54.70;;;;;;5069691;28;20386;-70
2022/06/08 05:32:22;;;;;;;3.67;3.00;;;24.40;54.70;;;;;;5069944;28;20447;-70
2022/06/08 05:34:48;;;;;;;3.20;2.90;;;24.50;54.70;;;;;;5056445;28;20434;-67
2022/06/08 05:37:14;;;;;;;3.35;3.00;;;24.50;54.60;;;;;;5056684;28;20481;-71
2022/06/08 05:39:41;;;;;;;4.97;2.90;;;24.60;54.60;;;;;;5056407;28;20056;-68
2022/06/08 05:42:08;;;;;;;4.13;2.88;;;24.60;54.40;;;;;;5074442;28;20056;-69
2022/06/08 05:44:34;;;;;;;3.58;2.88;;;24.60;54.20;;;;;;5074038;28;20036;-68
2022/06/08 05:47:00;;;;;;;3.30;2.90;;;24.60;54.10;;;;;;5056573;28;20467;-69
2022/06/08 05:49:25;;;;;;;3.13;2.78;;;24.70;54.10;;;;;;5056086;28;20112;-69
2022/06/08 05:51:51;;;;;;;2.45;2.15;;;24.70;54.00;;;;;;5073927;28;20020;-71
2022/06/08 05:54:17;;;;;;;4.70;2.97;;;24.70;53.90;;;;;;5056228;28;20021;-69
2022/06/08 05:56:42;;;;;;;4.80;2.80;;;24.80;53.80;;;;;;5056170;28;20115;-70
2022/06/08 05:59:08;;;;;;;3.15;2.55;;;24.70;53.60;;;;;;5056315;28;20428;-70
2022/06/08 06:01:35;;;;;;;2.70;2.30;;;24.80;53.60;;;;;;5073972;28;20494;-71
2022/06/08 06:04:07;;;;;;;4.47;2.80;;;24.80;53.40;;;;;;5057212;28;20020;-70
2022/06/08 06:06:33;;;;;;;3.97;2.40;;;24.80;53.30;;;;;;5074842;28;20028;-70
2022/06/08 06:09:01;;;;;;;2.88;2.33;;;24.90;53.40;;;;;;5074711;28;20115;-69
2022/06/08 06:11:26;;;;;;;2.72;2.22;;;24.90;53.40;;;;;;5056993;28;20028;-70
2022/06/08 06:13:52;;;;;;;3.35;2.50;;;24.90;53.00;;;;;;5074730;28;20476;-70
2022/06/08 06:16:18;;;;;;;4.20;2.30;;;24.90;52.80;;;;;;5074732;28;20031;-70
2022/06/08 06:18:44;;;;;;;2.90;2.15;;;24.90;52.70;;;;;;5074946;28;20025;-69
2022/06/08 06:21:20;;;;;;;2.80;2.42;;;24.90;52.60;;;;;;5056562;28;20052;-70
2022/06/08 06:23:46;;;;;;;3.85;2.38;;;25.00;52.10;;;;;;5074944;28;20032;-69
2022/06/08 06:26:11;;;;;;;4.05;2.50;;;25.00;52.50;;;;;;5074828;28;20037;-70
2022/06/08 06:28:37;;;;;;;4.15;2.28;;;25.00;51.60;;;;;;5056881;28;20085;-70
2022/06/08 06:31:03;;;;;;;2.35;1.95;;;25.00;51.60;;;;;;5074593;28;20031;-70
2022/06/08 06:33:31;;;;;;;3.72;2.30;;;25.00;51.60;;;;;;5074555;28;20036;-72
2022/06/08 06:35:57;;;;;;;5.05;2.30;;;25.10;51.40;;;;;;5056404;28;20382;-68
2022/06/08 06:38:22;;;;;;;2.83;2.10;;;25.10;51.30;;;;;;5074170;28;20044;-70
2022/06/08 06:40:48;;;;;;;6.03;2.00;;;25.10;51.30;;;;;;5074494;28;20103;-70
2022/06/08 06:43:14;;;;;;;4.60;2.25;;;25.10;51.20;;;;;;5074376;28;20052;-71
2022/06/08 06:45:40;;;;;;;2.72;2.05;;;25.10;51.20;;;;;;5056104;28;20082;-69
2022/06/08 06:48:06;;;;;;;4.05;2.17;;;25.10;51.10;;;;;;5074093;28;20497;-70
2022/06/08 06:50:31;;;;;;;4.68;1.90;;;25.10;51.00;;;;;;5056699;28;20024;-69
2022/06/08 06:52:59;;;;;;;2.50;1.98;;;25.10;50.90;;;;;;5074121;28;20024;-69
2022/06/08 06:55:32;;;;;;;2.42;1.75;;;25.10;50.90;;;;;;5056060;28;20024;-69
2022/06/08 06:57:58;;;;;;;3.85;2.03;;;25.20;50.80;;;;;;5055902;28;20031;-70
2022/06/08 07:00:25;;;;;;;2.75;1.90;;;25.10;50.70;;;;;;5073850;28;20108;-69
2022/06/08 07:02:51;;;;;;;3.05;2.13;;;25.20;50.70;;;;;;5073895;28;20024;-70
2022/06/08 07:05:21;;;;;;;4.60;2.10;;;25.20;50.50;;;;;;5073759;28;20482;-68
2022/06/08 07:07:47;;;;;;;4.55;2.15;;;25.20;50.40;;;;;;5055973;28;20068;-70
2022/06/08 07:10:13;;;;;;;4.78;2.10;;;25.30;50.40;;;;;;5056000;28;20036;-71
2022/06/08 07:12:39;;;;;;;4.43;1.83;;;25.30;50.20;;;;;;5055840;28;20025;-69
2022/06/08 07:15:05;;;;;;;3.08;2.00;;;25.30;50.10;;;;;;5073640;28;20031;-71
2022/06/08 07:17:31;;;;;;;3.47;1.98;;;25.30;50.00;;;;;;5073481;28;20120;-70
2022/06/08 07:19:57;;;;;;;5.80;2.17;;;25.40;49.90;;;;;;5055948;28;20119;-71
2022/06/08 07:22:22;;;;;;;4.75;1.85;;;25.40;49.80;;;;;;5073765;28;20020;-69
2022/06/08 07:24:48;;;;;;;3.92;2.00;;;25.40;49.60;;;;;;5073418;28;20056;-70
2022/06/08 07:27:14;;;;;;;3.67;2.10;;;25.40;49.40;;;;;;5073580;28;20040;-71
2022/06/08 07:29:40;;;;;;;3.67;2.85;;;25.40;49.30;;;;;;5073471;28;20105;-71
2022/06/08 07:32:06;;;;;;;6.15;2.83;;;25.40;49.10;;;;;;5073569;28;20451;-69
2022/06/08 07:34:32;;;;;;;4.55;2.20;;;25.60;49.10;;;;;;5073132;28;20017;-70
2022/06/08 07:37:00;;;;;;;4.90;2.30;;;25.60;49.00;;;;;;5073560;28;20382;-71
2022/06/08 07:39:26;;;;;;;3.67;2.13;;;25.70;48.90;;;;;;5051208;28;20053;-69
2022/06/08 07:41:52;;;;;;;3.22;2.03;;;25.70;48.80;;;;;;5053185;28;20025;-70
2022/06/08 07:44:19;;;;;;;7.20;1.88;;;25.80;48.80;;;;;;5035525;28;20083;-70
2022/06/08 07:46:45;;;;;;;3.05;1.88;;;25.80;48.70;;;;;;5053283;28;20041;-69
2022/06/08 07:49:37;;;;;;;2.60;1.70;;;25.90;48.60;;;;;;5053339;28;20113;-70
2022/06/08 07:52:07;;;;;;;4.05;1.95;;;25.90;48.50;;;;;;5053294;28;20022;-70
2022/06/08 07:54:33;;;;;;;6.00;1.52;;;26.00;48.30;;;;;;5035214;28;20541;-72
2022/06/08 07:57:01;;;;;;;2.50;1.85;;;26.00;48.20;;;;;;5035399;28;20076;-70
2022/06/08 07:59:29;;;;;;;3.00;1.63;;;26.00;48.30;;;;;;5036022;28;20028;-71
2022/06/08 08:01:55;;;;;;;2.00;1.80;;;26.00;48.10;;;;;;5053145;28;20036;-70
2022/06/08 08:04:22;;;;;;;3.53;1.70;;;26.00;48.10;;;;;;5053267;28;20036;-69
2022/06/08 08:06:48;;;;;;;2.88;1.70;;;26.00;48.00;;;;;;5053058;28;20036;-69
2022/06/08 08:09:17;;;;;;;2.22;1.42;;;26.00;48.00;;;;;;5053234;28;20455;-75
2022/06/08 08:11:45;;;;;;;2.35;1.63;;;26.10;47.90;;;;;;5034967;28;20083;-70
2022/06/08 08:14:12;;;;;;;2.17;1.58;;;26.10;47.70;;;;;;5035209;28;20119;-71
2022/06/08 08:16:38;;;;;;;1.95;1.58;;;26.20;47.60;;;;;;5035246;28;20044;-70
2022/06/08 08:19:04;;;;;;;2.30;1.42;;;26.20;47.40;;;;;;5052876;28;20025;-70
2022/06/08 08:21:32;;;;;;;1.45;1.35;;;26.30;47.40;;;;;;5053086;28;20086;-70
2022/06/08 08:23:59;;;;;;;2.35;1.60;;;26.30;47.10;;;;;;5035077;28;20104;-70
2022/06/08 08:26:26;;;;;;;1.33;1.23;;;26.40;47.00;;;;;;5034969;28;20124;-69
2022/06/08 08:28:53;;;;;;;2.10;1.30;;;26.40;46.80;;;;;;5052947;28;20356;-69
2022/06/08 08:31:18;;;;;;;1.73;1.40;;;26.40;46.70;;;;;;5035414;28;20026;-70
2022/06/08 08:33:44;;;;;;;2.05;1.30;;;26.50;46.70;;;;;;5052849;28;20025;-69
2022/06/08 08:36:10;;;;;;;2.20;1.60;;;26.50;46.60;;;;;;5052698;28;20040;-69
2022/06/08 08:38:35;;;;;;;1.30;1.20;;;26.50;46.60;;;;;;5039916;28;20051;-69
2022/06/08 08:41:02;;;;;;;2.10;1.55;;;26.50;46.40;;;;;;5073374;28;20055;-70
2022/06/08 08:43:35;;;;;;;1.58;1.20;;;26.50;46.40;;;;;;5072773;28;20455;-69
2022/06/08 08:46:15;;;;;;;1.63;1.52;;;26.50;46.30;;;;;;5054741;28;20040;-69
2022/06/08 08:49:05;;;;;;;1.17;1.08;;;26.60;46.30;;;;;;5054957;28;20029;-70
2022/06/08 08:51:42;;;;;;;2.08;1.98;;;26.60;46.10;;;;;;5057638;28;20040;-69
2022/06/08 08:54:17;;;;;;;2.63;1.13;;;26.50;46.00;;;;;;5076175;28;20028;-70
2022/06/08 08:56:43;;;;;;;2.10;1.50;;;26.50;45.90;;;;;;5080360;28;20024;-70
2022/06/08 08:59:19;;;;;;;1.98;1.50;;;26.50;46.00;;;;;;5096152;28;20032;-69
2022/06/08 09:01:49;;;;;;;1.98;1.45;;;26.50;45.90;;;;;;5095279;28;20426;-68
2022/06/08 09:04:47;;;;;;;1.67;1.42;;;26.50;46.00;;;;;;5095702;28;20057;-69
2022/06/08 09:07:22;;;;;;;2.03;1.40;;;26.50;45.60;;;;;;5080582;28;20058;-70
2022/06/08 09:09:48;;;;;;;1.83;1.40;;;26.50;45.20;;;;;;5077687;28;20028;-69
2022/06/08 09:12:20;;;;;;;1.35;1.25;;;26.40;45.60;;;;;;5096193;28;20020;-70
2022/06/08 09:14:50;;;;;;;1.30;1.23;;;26.50;45.70;;;;;;5077946;28;20031;-70
2022/06/08 09:17:33;;;;;;;2.53;1.30;;;26.40;45.50;;;;;;5077836;28;20446;-70
2022/06/08 09:20:01;;;;;;;1.55;1.40;;;26.40;45.40;;;;;;5095656;28;20070;-70
2022/06/08 09:22:29;;;;;;;1.55;1.15;;;26.50;45.50;;;;;;5076916;28;20114;-70
2022/06/08 09:25:22;;;;;;;1.20;1.10;;;26.40;45.40;;;;;;5077476;28;20028;-69
2022/06/08 09:27:50;;;;;;;1.88;1.27;;;26.40;45.20;;;;;;5095433;28;20082;-70
2022/06/08 09:30:23;;;;;;;1.58;1.17;;;26.40;45.30;;;;;;5094860;28;20056;-69
2022/06/08 09:33:13;;;;;;;1.35;1.25;;;26.40;45.20;;;;;;5095057;28;20028;-69
2022/06/08 09:35:55;;;;;;;1.20;1.17;;;26.40;45.00;;;;;;5077457;28;20052;-71
2022/06/08 09:38:24;;;;;;;1.73;1.27;;;26.40;45.00;;;;;;5095053;28;20486;-69
2022/06/08 09:40:56;;;;;;;2.20;1.10;;;26.40;45.10;;;;;;5095101;28;20035;-69
2022/06/08 09:43:33;;;;;;;3.78;1.20;;;26.50;45.10;;;;;;5095189;28;20020;-70
2022/06/08 09:45:59;;;;;;;1.48;1.23;;;26.40;44.90;;;;;;5095179;28;20032;-69
2022/06/08 09:51:38;;;;;;;1.58;1.40;;;26.40;44.90;;;;;;5095016;28;20169;-69
2022/06/08 09:54:29;;;;;;;1.73;1.60;;;26.40;44.60;;;;;;5095100;28;20054;-69
2022/06/08 09:57:08;;;;;;;1.02;1.02;;;26.40;44.80;;;;;;5094659;28;20036;-70
2022/06/08 10:00:01;;;;;;;1.63;1.40;;;26.50;44.70;;;;;;5076645;28;20020;-71
2022/06/08 10:02:29;;;;;;;1.92;1.50;;;26.40;44.40;;;;;;5094275;28;20032;-70
2022/06/08 10:05:16;;;;;;;1.77;1.17;;;26.50;44.60;;;;;;5095175;28;20020;-68
2022/06/08 10:08:13;;;;;;;4.20;1.35;;;26.50;44.40;;;;;;5095160;28;20050;-69
2022/06/08 10:11:00;;;;;;;1.27;1.10;;;26.40;44.20;;;;;;5094789;28;20036;-69
2022/06/08 10:13:38;;;;;;;1.48;1.38;;;26.40;44.30;;;;;;5094484;28;20024;-69
2022/06/08 10:16:09;;;;;;;1.40;1.30;;;26.50;44.30;;;;;;5094655;28;20153;-69
2022/06/08 10:19:01;;;;;;;1.80;1.30;;;26.50;44.20;;;;;;5094089;28;20031;-68
2022/06/08 10:21:33;;;;;;;1.08;1.00;;;26.50;43.90;;;;;;5094777;28;20111;-69
2022/06/08 10:24:25;;;;;;;0.98;0.98;;;26.50;44.10;;;;;;5094639;28;20399;-70
2022/06/08 10:27:02;;;;;;;1.40;1.30;;;26.50;44.20;;;;;;5093896;28;20105;-69
2022/06/08 10:29:43;;;;;;;1.73;0.98;;;26.50;44.20;;;;;;5094565;28;20020;-69
2022/06/08 10:32:24;;;;;;;1.98;1.85;;;26.50;44.00;;;;;;5094299;28;20359;-70
2022/06/08 10:34:56;;;;;;;1.80;1.70;;;26.50;44.10;;;;;;5094424;28;20028;-71
2022/06/08 10:37:37;;;;;;;1.60;1.50;;;26.50;44.00;;;;;;5075955;28;20035;-69
2022/06/08 10:40:22;;;;;;;1.75;1.60;;;26.60;43.90;;;;;;5076220;28;20074;-70
2022/06/08 10:42:50;;;;;;;1.42;1.30;;;26.60;44.00;;;;;;5076109;28;20028;-69
2022/06/08 10:45:42;;;;;;;1.50;1.30;;;26.70;44.20;;;;;;5093963;28;20020;-69
2022/06/08 10:48:11;;;;;;;1.45;1.35;;;26.70;43.90;;;;;;5094023;28;20036;-70
2022/06/08 10:50:45;;;;;;;1.40;1.30;;;26.70;44.20;;;;;;5093766;28;20462;-69
2022/06/08 10:56:35;;;;;;;2.65;1.45;;;26.70;44.00;;;;;;5093797;28;20046;-69
2022/06/08 10:59:13;;;;;;;2.15;1.58;;;26.60;43.70;;;;;;5094044;28;20023;-71
2022/06/08 11:01:53;;;;;;;2.80;1.50;;;26.60;44.10;;;;;;5093635;28;20028;-68
2022/06/08 11:04:32;;;;;;;2.08;1.60;;;26.70;44.00;;;;;;5093819;28;20027;-69
2022/06/08 11:07:07;;;;;;;1.70;1.60;;;26.70;44.10;;;;;;5093687;28;20119;-69
2022/06/08 11:09:33;;;;;;;1.50;1.40;;;26.80;44.10;;;;;;5075673;28;20032;-71
2022/06/08 11:12:13;;;;;;;3.15;1.40;;;26.70;44.00;;;;;;5075522;28;20069;-69
2022/06/08 11:14:48;;;;;;;3.08;1.48;;;26.80;44.00;;;;;;5074945;28;20024;-69
2022/06/08 11:17:26;;;;;;;1.38;1.27;;;26.80;44.00;;;;;;5075579;28;20398;-69
2022/06/08 11:19:56;;;;;;;1.30;1.30;;;26.80;44.00;;;;;;5093722;28;20057;-69
2022/06/08 11:22:29;;;;;;;1.85;1.38;;;26.80;43.90;;;;;;5093367;28;20021;-69
2022/06/08 11:25:00;;;;;;;1.30;1.20;;;26.90;43.90;;;;;;5093489;28;20028;-67
2022/06/08 11:27:32;;;;;;;1.55;1.45;;;26.90;43.80;;;;;;5093544;28;20038;-70
2022/06/08 11:30:20;;;;;;;1.63;1.40;;;26.90;43.80;;;;;;5067208;28;20026;-69
2022/06/08 11:32:52;;;;;;;1.33;1.23;;;27.00;43.80;;;;;;5072440;28;20036;-70
2022/06/08 11:35:54;;;;;;;1.15;1.15;;;27.00;43.70;;;;;;5093340;28;20111;-70
2022/06/08 11:38:49;;;;;;;1.35;1.25;;;27.00;43.40;;;;;;5093390;28;20059;-69
2022/06/08 11:41:20;;;;;;;1.80;1.63;;;27.00;43.50;;;;;;5083898;28;20040;-68
2022/06/08 11:43:48;;;;;;;3.08;1.30;;;27.10;43.70;;;;;;5093308;28;20035;-69
2022/06/08 11:46:25;;;;;;;1.95;1.30;;;27.00;43.60;;;;;;5074712;28;20474;-69
2022/06/08 11:48:52;;;;;;;2.72;1.30;;;27.10;43.60;;;;;;5093827;28;20032;-70
2022/06/08 11:51:39;;;;;;;1.40;1.30;;;27.10;43.60;;;;;;5093571;28;20089;-70
2022/06/08 11:54:17;;;;;;;1.45;1.35;;;27.10;43.40;;;;;;5075072;28;20158;-70
2022/06/08 11:57:04;;;;;;;1.30;1.20;;;27.10;43.50;;;;;;5093533;28;20024;-70
2022/06/08 11:59:36;;;;;;;1.30;1.20;;;27.00;43.30;;;;;;5075643;28;20523;-69
2022/06/08 12:02:18;;;;;;;1.40;1.30;;;27.10;43.40;;;;;;5093021;28;20028;-70
2022/06/08 12:04:47;;;;;;;1.30;1.20;;;27.10;43.40;;;;;;5075093;28;20047;-71
2022/06/08 12:07:40;;;;;;;1.52;1.42;;;27.20;43.40;;;;;;5074926;28;20047;-71
2022/06/08 12:10:07;;;;;;;2.40;1.00;;;27.20;43.00;;;;;;5093177;28;20032;-69
2022/06/08 12:12:34;;;;;;;1.33;1.23;;;27.20;43.20;;;;;;5092878;28;20052;-71
2022/06/08 12:15:25;;;;;;;1.38;1.23;;;27.20;43.20;;;;;;5093029;28;20465;-69
2022/06/08 12:17:51;;;;;;;1.77;1.40;;;27.30;43.00;;;;;;5046696;28;20076;-70
2022/06/08 12:20:37;;;;;;;1.30;1.23;;;27.30;43.20;;;;;;5092675;28;20035;-70
2022/06/08 12:23:03;;;;;;;1.52;1.40;;;27.40;42.80;;;;;;5074739;28;20102;-70
2022/06/08 12:25:30;;;;;;;1.40;1.30;;;27.40;43.00;;;;;;5096337;28;20107;-68
2022/06/08 12:28:14;;;;;;;1.30;1.20;;;27.50;43.00;;;;;;5078389;28;20489;-70
2022/06/08 12:30:49;;;;;;;2.97;1.40;;;27.50;42.80;;;;;;5096873;28;20028;-71
2022/06/08 12:33:16;;;;;;;1.58;1.15;;;27.60;42.60;;;;;;5078453;28;20028;-70
2022/06/08 12:36:10;;;;;;;1.40;1.30;;;27.70;42.40;;;;;;5096642;28;20397;-67
2022/06/08 12:38:37;;;;;;;;;;;27.80;42.20;;;;;;5078506;28;20118;-67
2022/06/08 12:41:10;;;;;;;1.15;1.15;;;27.90;42.00;;;;;;5078512;28;19998;-69
2022/06/08 12:43:42;;;;;;;1.50;1.40;;;27.90;42.30;;;;;;5096808;28;20020;-72
2022/06/08 12:46:17;;;;;;;3.42;1.20;;;28.00;42.30;;;;;;5080995;28;20621;-71
2022/06/08 12:48:48;;;;;;;1.88;1.40;;;28.00;42.20;;;;;;5070335;28;20028;-68
2022/06/08 12:51:29;;;;;;;1.13;1.05;;;28.10;42.20;;;;;;5055171;28;20029;-71
2022/06/08 12:53:56;;;;;;;1.30;1.20;;;28.20;42.00;;;;;;5070282;28;20028;-72
2022/06/08 12:56:22;;;;;;;2.08;1.67;;;28.20;42.10;;;;;;5068023;28;20087;-72
2022/06/08 12:58:49;;;;;;;1.40;1.30;;;28.30;42.10;;;;;;5070147;28;20108;-71
2022/06/08 13:01:16;;;;;;;1.50;1.40;;;28.40;42.00;;;;;;5052148;28;20032;-71
2022/06/08 13:03:43;;;;;;;1.58;1.48;;;28.50;42.00;;;;;;5070571;28;20039;-72
2022/06/08 13:06:10;;;;;;;1.95;1.27;;;28.60;41.90;;;;;;5072111;28;20039;-73
2022/06/08 13:08:37;;;;;;;1.58;1.17;;;28.70;41.80;;;;;;5056712;28;20033;-71
2022/06/08 13:11:06;;;;;;;2.88;1.33;;;28.80;41.70;;;;;;5074776;28;20142;-70
2022/06/08 13:13:36;;;;;;;1.00;1.00;;;28.90;41.70;;;;;;5072075;28;20020;-68
2022/06/08 13:16:11;;;;;;;1.00;1.00;;;29.00;41.60;;;;;;5066595;28;20029;-72
2022/06/08 13:18:38;;;;;;;2.15;1.40;;;29.10;41.50;;;;;;5072874;28;20044;-70